Flight Track Log - Related Links

Times and Time Zones

All times are in EDT time to prevent confusion due to time zone crossing. See the FFT532 flight status page for this flight to view local times or setup timezone preferences in your user account.

Time Position Orientation Groundspeed Altitude Reporting Facility
EDT Latitude Longitude Course Direction KTS MPH feet Rate Location/Type
Wed 12:36:04 PM 41.7667 -87.8000 90° East 168 193 2,400  Level Chicago TRACON
Wed 12:37:04 PM 41.8167 -87.7667 26° Northeast 259 298 3,100 733 Climbing Chicago TRACON
Wed 12:38:15 PM 41.7967 -87.6625 104° East 272 313 4,000 541 Climbing Chicago Center
Wed 12:39:17 PM 41.7750 -87.5658 107° East 272 313 4,300 1,742 Climbing Chicago Center
Wed 12:40:19 PM 41.7539 -87.4656 106° East 276 318 7,600 3,290 Climbing Chicago Center
Wed 12:41:00 PM 41.7500 -87.0388 90° East  Level FlightAware
Wed 12:41:21 PM 41.7581 -87.3325 88° East 298 343 11,100  Level Chicago Center
Wed 12:42:23 PM 41.7606 -87.2156 88° East 313 360 13,300 2,129 Climbing Chicago Center
Wed 12:43:25 PM 41.7606 -87.0836 90° East 353 406 15,500 2,177 Climbing Chicago Center
Wed 12:44:27 PM 41.7631 -86.9467 89° East 367 422 17,800 1,984 Climbing Chicago Center
Wed 12:45:29 PM 41.7636 -86.8069 90° East 376 433 19,600 1,920 Climbing Chicago Center
Wed 12:46:32 PM 41.7647 -86.6408 89° East 391 450 21,800 2,016 Climbing Chicago Center
Wed 12:47:34 PM 41.7678 -86.4900 88° East 403 464 23,800 1,742 Climbing Chicago Center
Wed 12:48:36 PM 41.7675 -86.3361 90° East 413 475 25,400 1,210 Climbing Chicago Center
Wed 12:49:38 PM 41.7694 -86.1750 89° East 431 496 26,300 1,306 Climbing Chicago Center
Wed 12:50:40 PM 41.7719 -85.9733 89° East 451 519 28,100 1,452 Climbing Chicago Center
Wed 12:51:42 PM 41.7742 -85.8011 89° East 459 528 29,300 1,161 Climbing Chicago Center
Wed 12:52:44 PM 41.7761 -85.6211 89° East 471 542 30,500 1,210 Climbing Chicago Center
Wed 12:53:46 PM 41.7783 -85.4442 89° East 475 547 31,800 1,210 Climbing Chicago Center
Wed 12:54:48 PM 41.7781 -85.2692 90° East 461 531 33,000 1,065 Climbing Chicago Center
Wed 12:55:50 PM 41.7800 -85.0947 89° East 464 534 34,000 1,113 Climbing Chicago Center
Wed 12:56:52 PM 41.7797 -84.9219 90° East 465 535 35,300 1,152 Climbing Chicago Center
Wed 12:57:55 PM 41.7803 -84.7525 90° East 456 525 36,400 1,211 Climbing Chicago Center
Wed 12:58:46 PM 41.7797 -84.5794 90° East 459 528 37,600 1,189 Climbing Cleveland Center
Wed 12:59:46 PM 41.7792 -84.4150 90° East 454 522 38,600 700 Climbing Cleveland Center
Wed 01:00:46 PM 41.7711 -84.2808 95° East 454 522 39,000 200 Climbing Cleveland Center
Wed 01:01:46 PM 41.7536 -84.1072 98° East 442 509 39,000  Level Cleveland Center
Wed 01:02:46 PM 41.7419 -83.9367 95° East 442 509 39,000  Level Cleveland Center
Wed 01:03:46 PM 41.7300 -83.7719 95° East 447 514 39,000  Level Cleveland Center
Wed 01:04:46 PM 41.7158 -83.6042 96° East 447 514 39,000  Level Cleveland Center
Wed 01:05:46 PM 41.7033 -83.4367 96° East 447 514 39,000  Level Cleveland Center
Wed 01:06:46 PM 41.6656 -83.2822 108° East 442 509 39,000  Level Cleveland Center
Wed 01:07:46 PM 41.6231 -83.1303 110° East 442 509 39,000  Level Cleveland Center
Wed 01:08:46 PM 41.5806 -82.9706 110° East 447 514 39,000  Level Cleveland Center
Wed 01:09:46 PM 41.5319 -82.8050 111° Southeast 447 514 39,000  Level Cleveland Center
Wed 01:10:46 PM 41.4889 -82.6511 110° East 447 514 39,000  Level Cleveland Center
Wed 01:11:46 PM 41.4436 -82.4972 111° Southeast 441 507 39,000  Level Cleveland Center
Wed 01:12:46 PM 41.3769 -82.3625 123° Southeast 441 507 39,000  Level Cleveland Center
Wed 01:13:46 PM 41.3039 -82.2306 126° Southeast 441 507 39,000  Level Cleveland Center
Wed 01:14:46 PM 41.2328 -82.0989 126° Southeast 441 507 39,000  Level Cleveland Center
Wed 01:15:46 PM 41.1614 -81.9703 126° Southeast 441 507 39,000  Level Cleveland Center
Wed 01:16:46 PM 41.0900 -81.8394 126° Southeast 441 507 39,000  Level Cleveland Center
Wed 01:17:46 PM 41.0206 -81.7086 125° Southeast 441 507 39,000  Level Cleveland Center
Wed 01:18:45 PM 40.9531 -81.5756 124° Southeast 441 507 39,000  Level Cleveland Center
Wed 01:19:46 PM 40.8811 -81.4481 127° Southeast 436 502 39,000  Level Cleveland Center
Wed 01:20:46 PM 40.8069 -81.3183 127° Southeast 436 502 39,000  Level Cleveland Center
Wed 01:21:46 PM 40.7367 -81.1886 126° Southeast 436 502 39,000  Level Cleveland Center
Wed 01:22:46 PM 40.6664 -81.0567 125° Southeast 436 502 39,000  Level Cleveland Center
Wed 01:23:46 PM 40.5942 -80.9275 126° Southeast 436 502 39,000  Level Cleveland Center
Wed 01:24:46 PM 40.5236 -80.7933 125° Southeast 446 513 39,000  Level Cleveland Center
Wed 01:25:46 PM 40.4758 -80.6650 116° Southeast 441 507 39,000  Level Cleveland Center
Wed 01:26:46 PM 40.4214 -80.5178 116° Southeast 441 507 39,000  Level Cleveland Center
Wed 01:27:46 PM 40.3775 -80.3733 112° Southeast 435 501 39,000  Level Cleveland Center
Wed 01:28:46 PM 40.3689 -80.1989 94° East 427 491 39,000  Level Cleveland Center
Wed 01:29:46 PM 40.3661 -80.0436 91° East 427 491 39,000  Level Cleveland Center
Wed 01:30:46 PM 40.3589 -79.8803 93° East 432 497 39,000  Level Cleveland Center
Wed 01:31:46 PM 40.3517 -79.7222 93° East 432 497 39,000  Level Cleveland Center
Wed 01:32:46 PM 40.3461 -79.5617 93° East 438 504 39,000  Level Cleveland Center
Wed 01:33:46 PM 40.3383 -79.4008 94° East 443 510 39,000  Level Cleveland Center
Wed 01:34:45 PM 40.3344 -79.2403 92° East 443 510 39,000  Level Cleveland Center
Wed 01:35:46 PM 40.3261 -79.0797 94° East 443 510 39,000  Level Cleveland Center
Wed 01:36:46 PM 40.3200 -78.9328 93° East 443 510 39,000 -800 Level Cleveland Center
Wed 01:37:46 PM 40.3133 -78.7753 93° East 443 510 37,400 -2,150 Descending Cleveland Center
Wed 01:38:46 PM 40.3150 -78.6117 89° East 443 510 34,700 -2,750 Descending Cleveland Center
Wed 01:39:46 PM 40.3139 -78.4456 90° East 438 504 31,900 -2,762 Descending Cleveland Center
Wed 01:42:08 PM 40.3125 -78.0475 90° East 454 522 25,400 -2,160 Descending New Center
Wed 01:43:06 PM 40.3108 -77.9003 91° East 430 495 24,700 -864 Descending New Center
Wed 01:44:06 PM 40.3103 -77.7694 90° East 408 470 23,700 -992 Descending New Center
Wed 01:45:07 PM 40.3103 -77.6278 90° East 402 463 22,700 -1,000 Descending New Center
Wed 01:46:06 PM 40.3106 -77.4808 90° East 402 463 21,700 -1,000 Descending New Center
Wed 01:47:07 PM 40.3078 -77.3417 91° East 395 455 20,700 -1,000 Descending New Center
Wed 01:48:06 PM 40.3017 -77.1914 93° East 389 448 19,700 -1,008 Descending New Center
Wed 01:49:06 PM 40.2986 -77.0522 92° East 384 442 18,700 -843 Descending New Center
Wed 01:50:07 PM 40.2678 -76.9244 108° East 374 430 18,000 -347 Descending New Center
Wed 01:51:07 PM 40.2450 -76.8025 104° East 379 436 18,000 -149 Level New Center
Wed 01:52:08 PM 40.2264 -76.6731 101° East 374 430 17,700 -694 Descending New Center
Wed 01:53:08 PM 40.2044 -76.5300 101° East 369 425 16,600 -1,068 Descending New Center
Wed 01:54:06 PM 40.1836 -76.3978 102° East 364 419 15,600 -1,200 Descending New Center
Wed 01:55:08 PM 40.1644 -76.2739 101° East 359 413 14,200 -1,537 Descending New Center
Wed 01:56:07 PM 40.1486 -76.1642 101° East 354 407 12,500 -1,600 Descending New Center
Wed 01:57:08 PM 40.1275 -76.0322 102° East 339 390 11,000 -1,109 Descending New Center
Wed 01:58:06 PM 40.1300 -75.9264 88° East 305 351 10,300 -763 Descending New Center
Wed 01:59:06 PM 40.1428 -75.8269 80° East 282 325 9,500 -793 Descending New Center
Wed 02:00:07 PM 40.1528 -75.7353 82° East 282 325 8,700 -843 Descending New Center
Wed 02:01:07 PM 40.1678 -75.6250 80° East 277 319 7,800 -700 Descending New Center
Wed 02:02:07 PM 40.1797 -75.5361 80° East 277 319 7,300 -595 Descending New Center
Wed 02:03:08 PM 40.1944 -75.4283 80° East 277 319 6,600 -595 Descending New Center
Wed 02:04:08 PM 40.2064 -75.3394 80° East 277 319 6,100 -610 Descending New Center
Wed 02:05:06 PM 40.2228 -75.2347 78° East 272 313 5,400 -550 Descending New Center
Wed 02:06:08 PM 40.2342 -75.1536 80° East 244 281 5,000 -729 Descending New Center
Wed 02:08:07 PM 40.2433 -75.0211 85° East 196 226 3,200 -960 Descending New Center
Wed 02:10:43 PM 40.2500 -74.8500 87° East 140 161 600 -1,000 Descending Philadelphia TRACON
Wed 02:13:00 PM 40.2667 -74.8000 78° East  Level FlightAware

Login

Don't have an account? Register now (free) for customized features, flight alerts, and more!